sensor_id;sensor_type;location;lat;lon;timestamp;P1;durP1;ratioP1;P2;durP2;ratioP2
56307;SDS011;42217;50.422;7.210;2022-07-17T00:01:05;4.93;;;1.50;;
56307;SDS011;42217;50.422;7.210;2022-07-17T00:03:31;3.72;;;1.20;;
56307;SDS011;42217;50.422;7.210;2022-07-17T00:05:57;5.10;;;1.63;;
56307;SDS011;42217;50.422;7.210;2022-07-17T00:08:23;2.65;;;0.90;;
56307;SDS011;42217;50.422;7.210;2022-07-17T00:10:49;2.70;;;1.07;;
56307;SDS011;42217;50.422;7.210;2022-07-17T00:13:15;3.07;;;1.40;;
56307;SDS011;42217;50.422;7.210;2022-07-17T00:15:41;6.10;;;1.20;;
56307;SDS011;42217;50.422;7.210;2022-07-17T00:18:06;1.83;;;1.58;;
56307;SDS011;42217;50.422;7.210;2022-07-17T00:20:33;2.90;;;1.33;;
56307;SDS011;42217;50.422;7.210;2022-07-17T00:22:59;5.47;;;1.38;;
56307;SDS011;42217;50.422;7.210;2022-07-17T00:25:25;3.05;;;1.27;;
56307;SDS011;42217;50.422;7.210;2022-07-17T00:27:50;2.53;;;1.35;;
56307;SDS011;42217;50.422;7.210;2022-07-17T00:30:17;4.90;;;1.50;;
56307;SDS011;42217;50.422;7.210;2022-07-17T00:32:44;2.67;;;1.37;;
56307;SDS011;42217;50.422;7.210;2022-07-17T00:35:10;5.93;;;1.07;;
56307;SDS011;42217;50.422;7.210;2022-07-17T00:37:43;1.83;;;1.30;;
56307;SDS011;42217;50.422;7.210;2022-07-17T00:40:11;3.20;;;1.40;;
56307;SDS011;42217;50.422;7.210;2022-07-17T00:42:39;5.80;;;1.40;;
56307;SDS011;42217;50.422;7.210;2022-07-17T00:45:06;2.17;;;1.23;;
56307;SDS011;42217;50.422;7.210;2022-07-17T00:47:32;3.43;;;1.10;;
56307;SDS011;42217;50.422;7.210;2022-07-17T00:49:58;5.30;;;1.60;;
56307;SDS011;42217;50.422;7.210;2022-07-17T00:52:24;2.87;;;1.90;;
56307;SDS011;42217;50.422;7.210;2022-07-17T00:54:50;4.53;;;1.30;;
56307;SDS011;42217;50.422;7.210;2022-07-17T00:57:18;3.17;;;1.40;;
56307;SDS011;42217;50.422;7.210;2022-07-17T00:59:45;6.20;;;2.17;;
56307;SDS011;42217;50.422;7.210;2022-07-17T01:02:12;7.67;;;1.83;;
56307;SDS011;42217;50.422;7.210;2022-07-17T01:04:42;5.03;;;1.53;;
56307;SDS011;42217;50.422;7.210;2022-07-17T01:07:08;1.50;;;1.40;;
56307;SDS011;42217;50.422;7.210;2022-07-17T01:09:34;4.93;;;1.40;;
56307;SDS011;42217;50.422;7.210;2022-07-17T01:12:00;6.13;;;1.73;;
56307;SDS011;42217;50.422;7.210;2022-07-17T01:14:26;4.60;;;2.03;;
56307;SDS011;42217;50.422;7.210;2022-07-17T01:16:52;4.73;;;1.43;;
56307;SDS011;42217;50.422;7.210;2022-07-17T01:19:19;2.20;;;1.43;;
56307;SDS011;42217;50.422;7.210;2022-07-17T01:21:47;5.13;;;1.73;;
56307;SDS011;42217;50.422;7.210;2022-07-17T01:24:14;3.17;;;1.50;;
56307;SDS011;42217;50.422;7.210;2022-07-17T01:26:41;3.27;;;1.30;;
56307;SDS011;42217;50.422;7.210;2022-07-17T01:29:09;4.17;;;1.47;;
56307;SDS011;42217;50.422;7.210;2022-07-17T01:31:36;1.63;;;1.13;;
56307;SDS011;42217;50.422;7.210;2022-07-17T01:34:04;2.50;;;1.23;;
56307;SDS011;42217;50.422;7.210;2022-07-17T01:36:31;1.67;;;1.20;;
56307;SDS011;42217;50.422;7.210;2022-07-17T01:38:56;4.63;;;1.37;;
56307;SDS011;42217;50.422;7.210;2022-07-17T01:41:22;3.23;;;1.60;;
56307;SDS011;42217;50.422;7.210;2022-07-17T01:43:48;3.23;;;1.33;;
56307;SDS011;42217;50.422;7.210;2022-07-17T01:46:14;4.90;;;1.60;;
56307;SDS011;42217;50.422;7.210;2022-07-17T01:48:39;5.20;;;1.87;;
56307;SDS011;42217;50.422;7.210;2022-07-17T01:51:05;1.27;;;1.10;;
56307;SDS011;42217;50.422;7.210;2022-07-17T01:53:31;7.77;;;2.40;;
56307;SDS011;42217;50.422;7.210;2022-07-17T01:55:57;3.93;;;1.90;;
56307;SDS011;42217;50.422;7.210;2022-07-17T01:58:23;6.20;;;1.60;;
56307;SDS011;42217;50.422;7.210;2022-07-17T02:00:48;1.57;;;1.47;;
56307;SDS011;42217;50.422;7.210;2022-07-17T02:03:15;1.97;;;1.27;;
56307;SDS011;42217;50.422;7.210;2022-07-17T02:05:41;3.20;;;1.67;;
56307;SDS011;42217;50.422;7.210;2022-07-17T02:08:08;5.60;;;1.37;;
56307;SDS011;42217;50.422;7.210;2022-07-17T02:10:33;6.07;;;1.67;;
56307;SDS011;42217;50.422;7.210;2022-07-17T02:12:59;5.80;;;1.37;;
56307;SDS011;42217;50.422;7.210;2022-07-17T02:15:25;1.93;;;1.57;;
56307;SDS011;42217;50.422;7.210;2022-07-17T02:17:51;4.67;;;1.40;;
56307;SDS011;42217;50.422;7.210;2022-07-17T02:20:17;3.07;;;1.30;;
56307;SDS011;42217;50.422;7.210;2022-07-17T02:22:43;2.90;;;1.50;;
56307;SDS011;42217;50.422;7.210;2022-07-17T02:25:10;3.63;;;1.30;;
56307;SDS011;42217;50.422;7.210;2022-07-17T02:27:37;5.40;;;1.57;;
56307;SDS011;42217;50.422;7.210;2022-07-17T02:30:04;6.03;;;1.40;;
56307;SDS011;42217;50.422;7.210;2022-07-17T02:32:31;2.37;;;0.97;;
56307;SDS011;42217;50.422;7.210;2022-07-17T02:34:57;4.60;;;1.70;;
56307;SDS011;42217;50.422;7.210;2022-07-17T02:37:23;3.47;;;1.50;;
56307;SDS011;42217;50.422;7.210;2022-07-17T02:39:48;5.37;;;1.80;;
56307;SDS011;42217;50.422;7.210;2022-07-17T02:42:24;5.87;;;1.77;;
56307;SDS011;42217;50.422;7.210;2022-07-17T02:44:51;1.90;;;1.33;;
56307;SDS011;42217;50.422;7.210;2022-07-17T02:47:21;2.30;;;1.40;;
56307;SDS011;42217;50.422;7.210;2022-07-17T02:49:51;4.67;;;1.53;;
56307;SDS011;42217;50.422;7.210;2022-07-17T02:52:17;3.70;;;1.40;;
56307;SDS011;42217;50.422;7.210;2022-07-17T02:54:44;3.20;;;1.40;;
56307;SDS011;42217;50.422;7.210;2022-07-17T02:57:10;3.90;;;1.10;;
56307;SDS011;42217;50.422;7.210;2022-07-17T02:59:36;4.87;;;1.83;;
56307;SDS011;42217;50.422;7.210;2022-07-17T03:02:02;5.37;;;1.50;;
56307;SDS011;42217;50.422;7.210;2022-07-17T03:04:28;2.03;;;1.40;;
56307;SDS011;42217;50.422;7.210;2022-07-17T03:06:53;3.23;;;1.80;;
56307;SDS011;42217;50.422;7.210;2022-07-17T03:09:19;4.33;;;2.20;;
56307;SDS011;42217;50.422;7.210;2022-07-17T03:11:45;4.13;;;3.03;;
56307;SDS011;42217;50.422;7.210;2022-07-17T03:14:10;2.80;;;2.10;;
56307;SDS011;42217;50.422;7.210;2022-07-17T03:16:36;2.93;;;1.60;;
56307;SDS011;42217;50.422;7.210;2022-07-17T03:19:02;3.43;;;1.50;;
56307;SDS011;42217;50.422;7.210;2022-07-17T03:21:28;3.37;;;1.53;;
56307;SDS011;42217;50.422;7.210;2022-07-17T03:23:53;2.33;;;1.63;;
56307;SDS011;42217;50.422;7.210;2022-07-17T03:26:19;3.93;;;1.70;;
56307;SDS011;42217;50.422;7.210;2022-07-17T03:28:45;2.60;;;1.80;;
56307;SDS011;42217;50.422;7.210;2022-07-17T03:31:10;4.13;;;1.80;;
56307;SDS011;42217;50.422;7.210;2022-07-17T03:33:36;3.77;;;1.53;;
56307;SDS011;42217;50.422;7.210;2022-07-17T03:36:02;2.13;;;1.50;;
56307;SDS011;42217;50.422;7.210;2022-07-17T03:38:27;11.03;;;1.97;;
56307;SDS011;42217;50.422;7.210;2022-07-17T03:40:53;6.87;;;2.93;;
56307;SDS011;42217;50.422;7.210;2022-07-17T03:43:19;5.53;;;1.80;;
56307;SDS011;42217;50.422;7.210;2022-07-17T03:45:45;1.90;;;1.60;;
56307;SDS011;42217;50.422;7.210;2022-07-17T03:48:10;3.10;;;1.60;;
56307;SDS011;42217;50.422;7.210;2022-07-17T03:50:36;4.43;;;1.90;;
56307;SDS011;42217;50.422;7.210;2022-07-17T03:53:02;4.47;;;2.03;;
56307;SDS011;42217;50.422;7.210;2022-07-17T03:55:28;3.03;;;1.63;;
56307;SDS011;42217;50.422;7.210;2022-07-17T03:57:53;2.90;;;1.63;;
56307;SDS011;42217;50.422;7.210;2022-07-17T04:00:19;12.47;;;2.10;;
56307;SDS011;42217;50.422;7.210;2022-07-17T04:02:45;5.73;;;1.93;;
56307;SDS011;42217;50.422;7.210;2022-07-17T04:05:10;3.10;;;1.57;;
56307;SDS011;42217;50.422;7.210;2022-07-17T04:07:37;4.20;;;2.47;;
56307;SDS011;42217;50.422;7.210;2022-07-17T04:10:04;1.50;;;1.30;;
56307;SDS011;42217;50.422;7.210;2022-07-17T04:12:31;5.20;;;1.57;;
56307;SDS011;42217;50.422;7.210;2022-07-17T04:14:57;4.27;;;1.67;;
56307;SDS011;42217;50.422;7.210;2022-07-17T04:17:23;8.20;;;1.63;;
56307;SDS011;42217;50.422;7.210;2022-07-17T04:19:49;3.40;;;1.95;;
56307;SDS011;42217;50.422;7.210;2022-07-17T04:22:15;7.72;;;1.92;;
56307;SDS011;42217;50.422;7.210;2022-07-17T04:24:42;4.25;;;1.13;;
56307;SDS011;42217;50.422;7.210;2022-07-17T04:27:08;3.17;;;1.60;;
56307;SDS011;42217;50.422;7.210;2022-07-17T04:29:34;3.22;;;1.48;;
56307;SDS011;42217;50.422;7.210;2022-07-17T04:32:00;3.07;;;1.10;;
56307;SDS011;42217;50.422;7.210;2022-07-17T04:34:26;2.38;;;1.20;;
56307;SDS011;42217;50.422;7.210;2022-07-17T04:36:52;2.72;;;1.45;;
56307;SDS011;42217;50.422;7.210;2022-07-17T04:39:18;4.32;;;2.03;;
56307;SDS011;42217;50.422;7.210;2022-07-17T04:41:44;4.97;;;2.15;;
56307;SDS011;42217;50.422;7.210;2022-07-17T04:44:09;7.78;;;1.85;;
56307;SDS011;42217;50.422;7.210;2022-07-17T04:46:35;2.67;;;1.42;;
56307;SDS011;42217;50.422;7.210;2022-07-17T04:49:01;3.28;;;1.17;;
56307;SDS011;42217;50.422;7.210;2022-07-17T04:51:27;4.57;;;1.40;;
56307;SDS011;42217;50.422;7.210;2022-07-17T04:53:52;3.42;;;2.08;;
56307;SDS011;42217;50.422;7.210;2022-07-17T04:56:18;14.30;;;1.60;;
56307;SDS011;42217;50.422;7.210;2022-07-17T04:58:44;5.93;;;1.42;;
56307;SDS011;42217;50.422;7.210;2022-07-17T05:01:09;3.95;;;1.38;;
56307;SDS011;42217;50.422;7.210;2022-07-17T05:03:35;3.05;;;1.42;;
56307;SDS011;42217;50.422;7.210;2022-07-17T05:06:03;3.30;;;1.75;;
56307;SDS011;42217;50.422;7.210;2022-07-17T05:08:28;4.05;;;1.60;;
56307;SDS011;42217;50.422;7.210;2022-07-17T05:10:54;1.80;;;1.38;;
56307;SDS011;42217;50.422;7.210;2022-07-17T05:13:20;3.92;;;1.38;;
56307;SDS011;42217;50.422;7.210;2022-07-17T05:15:46;2.78;;;1.55;;
56307;SDS011;42217;50.422;7.210;2022-07-17T05:18:12;3.38;;;2.53;;
56307;SDS011;42217;50.422;7.210;2022-07-17T05:20:39;2.53;;;1.63;;
56307;SDS011;42217;50.422;7.210;2022-07-17T05:23:05;6.32;;;1.92;;
56307;SDS011;42217;50.422;7.210;2022-07-17T05:25:31;3.92;;;1.55;;
56307;SDS011;42217;50.422;7.210;2022-07-17T05:27:57;5.13;;;1.77;;
56307;SDS011;42217;50.422;7.210;2022-07-17T05:30:23;3.55;;;1.70;;
56307;SDS011;42217;50.422;7.210;2022-07-17T05:32:49;5.47;;;1.80;;
56307;SDS011;42217;50.422;7.210;2022-07-17T05:35:14;2.30;;;1.67;;
56307;SDS011;42217;50.422;7.210;2022-07-17T05:37:40;2.75;;;1.40;;
56307;SDS011;42217;50.422;7.210;2022-07-17T05:40:06;7.80;;;1.58;;
56307;SDS011;42217;50.422;7.210;2022-07-17T05:42:32;5.18;;;1.95;;
56307;SDS011;42217;50.422;7.210;2022-07-17T05:44:58;7.45;;;1.67;;
56307;SDS011;42217;50.422;7.210;2022-07-17T05:47:24;3.55;;;1.38;;
56307;SDS011;42217;50.422;7.210;2022-07-17T05:49:50;4.20;;;1.33;;
56307;SDS011;42217;50.422;7.210;2022-07-17T05:52:16;2.95;;;1.17;;
56307;SDS011;42217;50.422;7.210;2022-07-17T05:54:42;4.05;;;1.23;;
56307;SDS011;42217;50.422;7.210;2022-07-17T05:57:08;2.15;;;1.17;;
56307;SDS011;42217;50.422;7.210;2022-07-17T05:59:34;4.55;;;1.42;;
56307;SDS011;42217;50.422;7.210;2022-07-17T06:01:59;4.32;;;0.90;;
56307;SDS011;42217;50.422;7.210;2022-07-17T06:04:25;5.72;;;1.60;;
56307;SDS011;42217;50.422;7.210;2022-07-17T06:06:51;3.70;;;1.45;;
56307;SDS011;42217;50.422;7.210;2022-07-17T06:09:17;3.47;;;1.02;;
56307;SDS011;42217;50.422;7.210;2022-07-17T06:11:43;2.70;;;1.10;;
56307;SDS011;42217;50.422;7.210;2022-07-17T06:14:08;3.40;;;1.38;;
56307;SDS011;42217;50.422;7.210;2022-07-17T06:16:34;2.83;;;0.88;;
56307;SDS011;42217;50.422;7.210;2022-07-17T06:19:00;6.60;;;1.02;;
56307;SDS011;42217;50.422;7.210;2022-07-17T06:21:26;5.55;;;1.27;;
56307;SDS011;42217;50.422;7.210;2022-07-17T06:23:51;3.95;;;1.40;;
56307;SDS011;42217;50.422;7.210;2022-07-17T06:26:17;8.40;;;1.08;;
56307;SDS011;42217;50.422;7.210;2022-07-17T06:28:43;2.20;;;1.50;;
56307;SDS011;42217;50.422;7.210;2022-07-17T06:31:09;8.43;;;1.52;;
56307;SDS011;42217;50.422;7.210;2022-07-17T06:33:34;11.02;;;2.63;;
56307;SDS011;42217;50.422;7.210;2022-07-17T06:36:01;4.10;;;0.98;;
56307;SDS011;42217;50.422;7.210;2022-07-17T06:38:28;4.72;;;1.05;;
56307;SDS011;42217;50.422;7.210;2022-07-17T06:40:53;3.20;;;1.30;;
56307;SDS011;42217;50.422;7.210;2022-07-17T06:43:19;8.60;;;1.50;;
56307;SDS011;42217;50.422;7.210;2022-07-17T06:45:45;5.10;;;1.30;;
56307;SDS011;42217;50.422;7.210;2022-07-17T06:48:11;3.63;;;1.45;;
56307;SDS011;42217;50.422;7.210;2022-07-17T06:50:36;9.77;;;1.67;;
56307;SDS011;42217;50.422;7.210;2022-07-17T06:53:02;4.07;;;1.38;;
56307;SDS011;42217;50.422;7.210;2022-07-17T06:55:28;5.60;;;1.20;;
56307;SDS011;42217;50.422;7.210;2022-07-17T06:57:54;4.53;;;1.40;;
56307;SDS011;42217;50.422;7.210;2022-07-17T07:00:20;4.20;;;0.98;;
56307;SDS011;42217;50.422;7.210;2022-07-17T07:02:45;1.35;;;0.65;;
56307;SDS011;42217;50.422;7.210;2022-07-17T07:05:11;3.25;;;1.10;;
56307;SDS011;42217;50.422;7.210;2022-07-17T07:07:37;2.20;;;0.95;;
56307;SDS011;42217;50.422;7.210;2022-07-17T07:10:03;2.00;;;1.10;;
56307;SDS011;42217;50.422;7.210;2022-07-17T07:12:29;4.78;;;0.90;;
56307;SDS011;42217;50.422;7.210;2022-07-17T07:14:55;4.47;;;1.67;;
56307;SDS011;42217;50.422;7.210;2022-07-17T07:17:21;2.83;;;0.73;;
56307;SDS011;42217;50.422;7.210;2022-07-17T07:19:47;7.95;;;1.02;;
56307;SDS011;42217;50.422;7.210;2022-07-17T07:22:13;5.90;;;0.93;;
56307;SDS011;42217;50.422;7.210;2022-07-17T07:24:38;2.83;;;1.05;;
56307;SDS011;42217;50.422;7.210;2022-07-17T07:27:04;1.67;;;0.95;;
56307;SDS011;42217;50.422;7.210;2022-07-17T07:29:30;6.03;;;1.23;;
56307;SDS011;42217;50.422;7.210;2022-07-17T07:31:56;5.22;;;0.75;;
56307;SDS011;42217;50.422;7.210;2022-07-17T07:34:21;5.10;;;0.80;;
56307;SDS011;42217;50.422;7.210;2022-07-17T07:36:47;6.32;;;2.10;;
56307;SDS011;42217;50.422;7.210;2022-07-17T07:39:13;17.35;;;0.90;;
56307;SDS011;42217;50.422;7.210;2022-07-17T07:41:39;3.05;;;0.77;;
56307;SDS011;42217;50.422;7.210;2022-07-17T07:44:06;1.30;;;0.70;;
56307;SDS011;42217;50.422;7.210;2022-07-17T07:46:32;2.70;;;0.70;;
56307;SDS011;42217;50.422;7.210;2022-07-17T07:48:59;5.18;;;0.73;;
56307;SDS011;42217;50.422;7.210;2022-07-17T07:51:25;1.73;;;0.60;;
56307;SDS011;42217;50.422;7.210;2022-07-17T07:53:51;3.92;;;0.70;;
56307;SDS011;42217;50.422;7.210;2022-07-17T07:56:17;5.70;;;0.98;;
56307;SDS011;42217;50.422;7.210;2022-07-17T07:58:43;3.65;;;0.57;;
56307;SDS011;42217;50.422;7.210;2022-07-17T08:01:08;6.00;;;0.70;;
56307;SDS011;42217;50.422;7.210;2022-07-17T08:03:34;2.10;;;0.75;;
56307;SDS011;42217;50.422;7.210;2022-07-17T08:06:00;5.18;;;0.93;;
56307;SDS011;42217;50.422;7.210;2022-07-17T08:08:26;2.78;;;1.00;;
56307;SDS011;42217;50.422;7.210;2022-07-17T08:10:52;1.77;;;0.57;;
56307;SDS011;42217;50.422;7.210;2022-07-17T08:13:18;3.15;;;0.80;;
56307;SDS011;42217;50.422;7.210;2022-07-17T08:15:44;3.15;;;0.93;;
56307;SDS011;42217;50.422;7.210;2022-07-17T08:18:10;2.90;;;0.57;;
56307;SDS011;42217;50.422;7.210;2022-07-17T08:20:36;3.85;;;0.98;;
56307;SDS011;42217;50.422;7.210;2022-07-17T08:23:02;3.08;;;0.85;;
56307;SDS011;42217;50.422;7.210;2022-07-17T08:25:27;5.60;;;0.98;;
56307;SDS011;42217;50.422;7.210;2022-07-17T08:27:53;3.47;;;0.60;;
56307;SDS011;42217;50.422;7.210;2022-07-17T08:30:19;2.90;;;0.90;;
56307;SDS011;42217;50.422;7.210;2022-07-17T08:32:45;5.85;;;0.80;;
56307;SDS011;42217;50.422;7.210;2022-07-17T08:35:11;3.05;;;0.85;;
56307;SDS011;42217;50.422;7.210;2022-07-17T08:37:50;6.50;;;0.80;;
56307;SDS011;42217;50.422;7.210;2022-07-17T08:40:24;6.47;;;0.98;;
56307;SDS011;42217;50.422;7.210;2022-07-17T08:42:52;6.28;;;2.00;;
56307;SDS011;42217;50.422;7.210;2022-07-17T08:45:18;3.75;;;0.40;;
56307;SDS011;42217;50.422;7.210;2022-07-17T08:47:45;2.80;;;0.52;;
56307;SDS011;42217;50.422;7.210;2022-07-17T08:50:11;3.65;;;0.60;;
56307;SDS011;42217;50.422;7.210;2022-07-17T08:52:38;3.65;;;0.60;;
56307;SDS011;42217;50.422;7.210;2022-07-17T08:55:10;1.70;;;0.63;;
56307;SDS011;42217;50.422;7.210;2022-07-17T08:57:38;6.97;;;1.45;;
56307;SDS011;42217;50.422;7.210;2022-07-17T09:00:05;2.63;;;0.77;;
56307;SDS011;42217;50.422;7.210;2022-07-17T09:02:32;4.25;;;0.52;;
56307;SDS011;42217;50.422;7.210;2022-07-17T09:04:57;3.65;;;0.70;;
56307;SDS011;42217;50.422;7.210;2022-07-17T09:07:23;1.15;;;0.45;;
56307;SDS011;42217;50.422;7.210;2022-07-17T09:09:52;7.50;;;0.80;;
56307;SDS011;42217;50.422;7.210;2022-07-17T09:12:25;6.20;;;0.88;;
56307;SDS011;42217;50.422;7.210;2022-07-17T09:14:52;3.17;;;1.02;;
56307;SDS011;42217;50.422;7.210;2022-07-17T09:17:18;3.05;;;0.60;;
56307;SDS011;42217;50.422;7.210;2022-07-17T09:19:44;3.90;;;0.75;;
56307;SDS011;42217;50.422;7.210;2022-07-17T09:24:48;5.47;;;0.50;;
56307;SDS011;42217;50.422;7.210;2022-07-17T09:32:23;4.72;;;0.70;;
56307;SDS011;42217;50.422;7.210;2022-07-17T09:34:51;2.30;;;0.63;;
56307;SDS011;42217;50.422;7.210;2022-07-17T09:37:19;1.27;;;0.77;;
56307;SDS011;42217;50.422;7.210;2022-07-17T09:39:48;3.80;;;0.55;;
56307;SDS011;42217;50.422;7.210;2022-07-17T09:45:09;4.03;;;0.93;;
56307;SDS011;42217;50.422;7.210;2022-07-17T09:47:37;4.55;;;0.80;;
56307;SDS011;42217;50.422;7.210;2022-07-17T09:50:04;4.75;;;0.95;;
56307;SDS011;42217;50.422;7.210;2022-07-17T09:52:33;6.80;;;0.60;;
56307;SDS011;42217;50.422;7.210;2022-07-17T09:55:00;1.50;;;0.52;;
56307;SDS011;42217;50.422;7.210;2022-07-17T09:57:28;1.73;;;0.43;;
56307;SDS011;42217;50.422;7.210;2022-07-17T09:59:58;1.23;;;0.43;;
56307;SDS011;42217;50.422;7.210;2022-07-17T10:02:25;2.08;;;0.38;;
56307;SDS011;42217;50.422;7.210;2022-07-17T10:04:51;5.75;;;0.60;;
56307;SDS011;42217;50.422;7.210;2022-07-17T10:07:17;5.00;;;0.70;;
56307;SDS011;42217;50.422;7.210;2022-07-17T10:09:44;0.85;;;0.40;;
56307;SDS011;42217;50.422;7.210;2022-07-17T10:12:10;4.45;;;0.63;;
56307;SDS011;42217;50.422;7.210;2022-07-17T10:14:37;3.00;;;0.55;;
56307;SDS011;42217;50.422;7.210;2022-07-17T10:17:09;2.83;;;0.75;;
56307;SDS011;42217;50.422;7.210;2022-07-17T10:19:55;2.47;;;0.68;;
56307;SDS011;42217;50.422;7.210;2022-07-17T10:22:22;1.95;;;0.73;;
56307;SDS011;42217;50.422;7.210;2022-07-17T10:24:50;2.97;;;0.47;;
56307;SDS011;42217;50.422;7.210;2022-07-17T10:30:06;4.97;;;1.30;;
56307;SDS011;42217;50.422;7.210;2022-07-17T10:32:34;6.97;;;1.03;;
56307;SDS011;42217;50.422;7.210;2022-07-17T10:35:02;2.97;;;0.85;;
56307;SDS011;42217;50.422;7.210;2022-07-17T10:45:14;3.25;;;0.50;;
56307;SDS011;42217;50.422;7.210;2022-07-17T10:47:43;2.05;;;0.65;;
56307;SDS011;42217;50.422;7.210;2022-07-17T10:50:11;7.40;;;1.00;;
56307;SDS011;42217;50.422;7.210;2022-07-17T10:52:37;3.70;;;1.20;;
56307;SDS011;42217;50.422;7.210;2022-07-17T10:55:03;1.95;;;0.75;;
56307;SDS011;42217;50.422;7.210;2022-07-17T10:57:31;4.55;;;0.68;;
56307;SDS011;42217;50.422;7.210;2022-07-17T10:59:57;1.35;;;0.50;;
56307;SDS011;42217;50.422;7.210;2022-07-17T11:02:29;3.90;;;0.50;;
56307;SDS011;42217;50.422;7.210;2022-07-17T11:05:16;3.42;;;1.23;;
56307;SDS011;42217;50.422;7.210;2022-07-17T11:07:49;1.20;;;0.45;;
56307;SDS011;42217;50.422;7.210;2022-07-17T11:10:18;7.07;;;0.52;;
56307;SDS011;42217;50.422;7.210;2022-07-17T11:12:43;0.73;;;0.40;;
56307;SDS011;42217;50.422;7.210;2022-07-17T11:15:09;3.60;;;0.30;;
56307;SDS011;42217;50.422;7.210;2022-07-17T11:17:35;2.50;;;0.65;;
56307;SDS011;42217;50.422;7.210;2022-07-17T11:20:02;2.38;;;0.47;;
56307;SDS011;42217;50.422;7.210;2022-07-17T11:22:29;3.63;;;0.63;;
56307;SDS011;42217;50.422;7.210;2022-07-17T11:24:54;3.78;;;0.73;;
56307;SDS011;42217;50.422;7.210;2022-07-17T11:27:22;1.77;;;0.40;;
56307;SDS011;42217;50.422;7.210;2022-07-17T11:29:48;1.33;;;0.30;;
56307;SDS011;42217;50.422;7.210;2022-07-17T11:32:14;3.33;;;0.63;;
56307;SDS011;42217;50.422;7.210;2022-07-17T11:34:40;1.45;;;0.40;;
56307;SDS011;42217;50.422;7.210;2022-07-17T11:37:06;1.27;;;0.40;;
56307;SDS011;42217;50.422;7.210;2022-07-17T11:39:43;5.18;;;1.20;;
56307;SDS011;42217;50.422;7.210;2022-07-17T11:42:14;3.80;;;0.40;;
56307;SDS011;42217;50.422;7.210;2022-07-17T11:44:44;3.08;;;0.45;;
56307;SDS011;42217;50.422;7.210;2022-07-17T11:47:11;3.40;;;0.40;;
56307;SDS011;42217;50.422;7.210;2022-07-17T11:49:37;1.60;;;0.40;;
56307;SDS011;42217;50.422;7.210;2022-07-17T11:52:09;1.48;;;0.28;;
56307;SDS011;42217;50.422;7.210;2022-07-17T11:57:12;2.17;;;0.60;;
56307;SDS011;42217;50.422;7.210;2022-07-17T11:59:39;2.92;;;0.45;;
56307;SDS011;42217;50.422;7.210;2022-07-17T12:02:09;1.05;;;0.65;;
56307;SDS011;42217;50.422;7.210;2022-07-17T12:04:57;1.52;;;0.32;;
56307;SDS011;42217;50.422;7.210;2022-07-17T12:07:26;2.65;;;0.73;;
56307;SDS011;42217;50.422;7.210;2022-07-17T12:12:51;1.10;;;0.65;;
56307;SDS011;42217;50.422;7.210;2022-07-17T12:15:20;1.15;;;0.40;;
56307;SDS011;42217;50.422;7.210;2022-07-17T12:17:46;0.57;;;0.40;;
56307;SDS011;42217;50.422;7.210;2022-07-17T12:20:12;1.90;;;0.50;;
56307;SDS011;42217;50.422;7.210;2022-07-17T12:22:47;10.57;;;1.75;;
56307;SDS011;42217;50.422;7.210;2022-07-17T12:25:24;3.20;;;0.98;;
56307;SDS011;42217;50.422;7.210;2022-07-17T12:27:50;2.00;;;0.45;;
56307;SDS011;42217;50.422;7.210;2022-07-17T12:30:16;0.55;;;0.13;;
56307;SDS011;42217;50.422;7.210;2022-07-17T12:32:43;0.73;;;0.30;;
56307;SDS011;42217;50.422;7.210;2022-07-17T12:35:09;1.70;;;0.30;;
56307;SDS011;42217;50.422;7.210;2022-07-17T12:37:35;2.15;;;0.50;;
56307;SDS011;42217;50.422;7.210;2022-07-17T12:40:00;2.88;;;0.40;;
56307;SDS011;42217;50.422;7.210;2022-07-17T12:42:26;1.58;;;0.52;;
56307;SDS011;42217;50.422;7.210;2022-07-17T12:44:52;2.50;;;0.40;;
56307;SDS011;42217;50.422;7.210;2022-07-17T12:47:18;0.90;;;0.32;;
56307;SDS011;42217;50.422;7.210;2022-07-17T12:49:43;0.98;;;0.30;;
56307;SDS011;42217;50.422;7.210;2022-07-17T12:52:09;2.72;;;0.73;;
56307;SDS011;42217;50.422;7.210;2022-07-17T12:54:35;1.25;;;0.40;;
56307;SDS011;42217;50.422;7.210;2022-07-17T12:57:01;0.85;;;0.20;;
56307;SDS011;42217;50.422;7.210;2022-07-17T12:59:27;3.72;;;0.40;;
56307;SDS011;42217;50.422;7.210;2022-07-17T13:01:52;3.85;;;0.30;;
56307;SDS011;42217;50.422;7.210;2022-07-17T13:04:19;2.60;;;0.47;;
56307;SDS011;42217;50.422;7.210;2022-07-17T13:06:45;1.35;;;0.32;;
56307;SDS011;42217;50.422;7.210;2022-07-17T13:09:12;1.13;;;0.30;;
56307;SDS011;42217;50.422;7.210;2022-07-17T13:11:40;1.63;;;0.32;;
56307;SDS011;42217;50.422;7.210;2022-07-17T13:14:07;1.48;;;0.40;;
56307;SDS011;42217;50.422;7.210;2022-07-17T13:16:37;2.05;;;0.70;;
56307;SDS011;42217;50.422;7.210;2022-07-17T13:19:03;1.38;;;0.30;;
56307;SDS011;42217;50.422;7.210;2022-07-17T13:21:30;1.77;;;0.30;;
56307;SDS011;42217;50.422;7.210;2022-07-17T13:23:56;1.35;;;0.40;;
56307;SDS011;42217;50.422;7.210;2022-07-17T13:26:22;1.88;;;0.82;;
56307;SDS011;42217;50.422;7.210;2022-07-17T13:28:47;1.10;;;0.38;;
56307;SDS011;42217;50.422;7.210;2022-07-17T13:31:13;1.38;;;0.60;;
56307;SDS011;42217;50.422;7.210;2022-07-17T13:33:39;4.68;;;0.47;;
56307;SDS011;42217;50.422;7.210;2022-07-17T13:36:05;0.73;;;0.32;;
56307;SDS011;42217;50.422;7.210;2022-07-17T13:38:31;1.02;;;0.30;;
56307;SDS011;42217;50.422;7.210;2022-07-17T13:40:57;3.47;;;0.77;;
56307;SDS011;42217;50.422;7.210;2022-07-17T13:43:22;1.05;;;0.20;;
56307;SDS011;42217;50.422;7.210;2022-07-17T13:45:48;0.82;;;0.20;;
56307;SDS011;42217;50.422;7.210;2022-07-17T13:48:14;3.97;;;0.30;;
56307;SDS011;42217;50.422;7.210;2022-07-17T13:50:40;0.50;;;0.25;;
56307;SDS011;42217;50.422;7.210;2022-07-17T13:53:07;2.13;;;0.57;;
56307;SDS011;42217;50.422;7.210;2022-07-17T13:55:33;3.50;;;0.30;;
56307;SDS011;42217;50.422;7.210;2022-07-17T13:57:58;2.03;;;0.38;;
56307;SDS011;42217;50.422;7.210;2022-07-17T14:00:24;3.95;;;0.28;;
56307;SDS011;42217;50.422;7.210;2022-07-17T14:02:50;4.00;;;0.60;;
56307;SDS011;42217;50.422;7.210;2022-07-17T14:05:16;2.47;;;0.95;;
56307;SDS011;42217;50.422;7.210;2022-07-17T14:07:43;2.20;;;0.32;;
56307;SDS011;42217;50.422;7.210;2022-07-17T14:10:09;2.28;;;0.30;;
56307;SDS011;42217;50.422;7.210;2022-07-17T14:12:35;0.70;;;0.30;;
56307;SDS011;42217;50.422;7.210;2022-07-17T14:15:01;0.93;;;0.20;;
56307;SDS011;42217;50.422;7.210;2022-07-17T14:17:28;2.42;;;0.50;;
56307;SDS011;42217;50.422;7.210;2022-07-17T14:19:54;1.33;;;0.32;;
56307;SDS011;42217;50.422;7.210;2022-07-17T14:22:19;1.98;;;0.40;;
56307;SDS011;42217;50.422;7.210;2022-07-17T14:24:45;0.95;;;0.30;;
56307;SDS011;42217;50.422;7.210;2022-07-17T14:27:11;1.73;;;0.50;;
56307;SDS011;42217;50.422;7.210;2022-07-17T14:29:37;1.52;;;0.25;;
56307;SDS011;42217;50.422;7.210;2022-07-17T14:32:03;1.58;;;0.22;;
56307;SDS011;42217;50.422;7.210;2022-07-17T14:34:29;2.88;;;0.50;;
56307;SDS011;42217;50.422;7.210;2022-07-17T14:36:55;1.60;;;0.30;;
56307;SDS011;42217;50.422;7.210;2022-07-17T14:39:21;1.80;;;0.40;;
56307;SDS011;42217;50.422;7.210;2022-07-17T14:41:47;1.95;;;0.17;;
56307;SDS011;42217;50.422;7.210;2022-07-17T14:44:12;0.82;;;0.30;;
56307;SDS011;42217;50.422;7.210;2022-07-17T14:46:38;3.75;;;0.80;;
56307;SDS011;42217;50.422;7.210;2022-07-17T14:49:04;1.13;;;0.38;;
56307;SDS011;42217;50.422;7.210;2022-07-17T14:51:30;2.90;;;0.20;;
56307;SDS011;42217;50.422;7.210;2022-07-17T14:53:56;0.75;;;0.20;;
56307;SDS011;42217;50.422;7.210;2022-07-17T14:56:22;1.60;;;0.10;;
56307;SDS011;42217;50.422;7.210;2022-07-17T14:58:48;2.05;;;0.32;;
56307;SDS011;42217;50.422;7.210;2022-07-17T15:01:13;3.13;;;0.40;;
56307;SDS011;42217;50.422;7.210;2022-07-17T15:03:39;2.33;;;0.47;;
56307;SDS011;42217;50.422;7.210;2022-07-17T15:06:05;1.88;;;0.82;;
56307;SDS011;42217;50.422;7.210;2022-07-17T15:08:31;1.48;;;0.45;;
56307;SDS011;42217;50.422;7.210;2022-07-17T15:10:57;3.40;;;0.28;;